Pagrindinis puslapis
METAR-TAF:

METAR-TAF

Oro uostai :

Lavan Island, Iranas

platuma: 26-48-37N, ilguma: 53-21-22E, Aukštis: 23 m

Dabartinis oras

Ataskaita buvo paskelbta 17 minutes, ne 03:00 UTC
Vėjas 6 kt iš Vakarų
Temperatūra 22°C
Drėgmė 83%
Slėgis 1008 hPa
Matomumas: 3000 m
migla,

METAR: OIBV 190300Z 27006KT 3000 HZ NSC 22/19 Q1008

Laikas: 07:47 (03:17 UTC)


TAF: trūkstamas

Orai ataskaitas ir orų prognozės (METAR, TAF).

turimą stotys yra geltonos ir raudonos taškus žemėlapyje.

Perkelti pele per norėdami pamatyti stoties vardą.

Tada spustelėkite, norėdami matyti oro stebėjimo ir prognozės.

Norėdami pakeisti žemėlapį: spustelėkite ant žalios mygtukų su juodo kryžiaus žemyn,; žalią mygtuką su brūkšneliu, jei norite nutolinti; arba žalių rodyklių gretimoms žemėlapius.


METAR-TAF: